• Join FlightAware (Why Join?)
  • Login
  • US Flag 
12:40PM EDT


 

Airport Tracker/Info


-or-


 

Live Flight TrackerFlight Track Log ✈ TRS423 ✈ 24-May-2013 ✈ KMCO - KPHL

Flight Track Log - Related Links

Times and Time Zones

All times are in EDT time to prevent confusion due to time zone crossing. See the TRS423 flight status page for this flight to view local times or setup timezone preferences in your user account.

Time Position Orientation Groundspeed Altitude Reporting Facility
EDT Latitude Longitude Course Direction KTS MPH feet Rate Location/Type
05:14PM 28.4333 -81.3000 28° Northeast 175 201 500  Level Orlando TRACON
05:15PM 28.5167 -81.2500 28° Northeast 225 259 2,900 1,440 Climbing Orlando TRACON
05:16PM 28.5833 -81.2333 12° North 269 310 4,200 1,800 Climbing Orlando TRACON
05:17PM 28.6500 -81.2333 360° North 274 315 6,500 2,220 Climbing Orlando TRACON
05:18PM 28.6800 -81.2528 330° Northwest 289 333 7,400 2,340 Climbing Jacksonville Center
05:19PM 28.7533 -81.2753 345° North 295 339 9,900 1,860 Climbing Jacksonville Center
05:20PM 28.8308 -81.3000 344° North 289 333 11,200 1,200 Climbing Jacksonville Center
05:21PM 28.9189 -81.3317 343° North 300 345 12,300 1,320 Climbing Jacksonville Center
05:22PM 29.0131 -81.3636 343° North 329 379 13,900 1,560 Climbing Jacksonville Center
05:23PM 29.1117 -81.3906 347° North 351 404 15,500 1,500 Climbing Jacksonville Center
05:24PM 29.2161 -81.4031 354° North 364 419 17,000 1,380 Climbing Jacksonville Center
05:25PM 29.3247 -81.4111 356° North 377 434 18,300 1,500 Climbing Jacksonville Center
05:26PM 29.4397 -81.4236 355° North 394 453 20,100 1,800 Climbing Jacksonville Center
05:27PM 29.5525 -81.4361 354° North 399 459 21,900 1,560 Climbing Jacksonville Center
05:28PM 29.6653 -81.4464 355° North 404 465 23,300 1,260 Climbing Jacksonville Center
05:29PM 29.7844 -81.4567 356° North 415 478 24,500 1,200 Climbing Jacksonville Center
05:30PM 29.9058 -81.4669 356° North 426 490 25,800 1,200 Climbing Jacksonville Center
05:31PM 30.0269 -81.4794 355° North 426 490 26,900 960 Climbing Jacksonville Center
05:32PM 30.1503 -81.4922 355° North 431 496 27,800 1,020 Climbing Jacksonville Center
05:33PM 30.2631 -81.5025 355° North 443 510 29,000 1,260 Climbing Jacksonville Center
05:34PM 30.3883 -81.5056 359° North 443 510 30,400 1,200 Climbing Jacksonville Center
05:35PM 30.5094 -81.4942 North 437 503 31,500 1,020 Climbing Jacksonville Center
05:36PM 30.6303 -81.4850 North 437 503 32,500 720 Climbing Jacksonville Center
05:37PM 30.7494 -81.4786 North 437 503 33,000 240 Climbing Jacksonville Center
05:38PM 30.8683 -81.4694 North 432 497 33,000  Level Jacksonville Center
05:39PM 30.9872 -81.4581 North 427 491 33,000  Level Jacksonville Center
05:40PM 31.1061 -81.4489 North 422 486 33,000  Level Jacksonville Center
05:41PM 31.2250 -81.4397 North 422 486 33,000  Level Jacksonville Center
05:42PM 31.3261 -81.3556 35° Northeast 422 486 33,000  Level Jacksonville Center
05:43PM 31.4208 -81.2492 44° Northeast 436 502 33,000  Level Jacksonville Center
05:44PM 31.5408 -81.1544 34° Northeast 462 532 33,000  Level Jacksonville Center
05:45PM 31.6439 -81.0672 36° Northeast 457 526 33,000  Level Jacksonville Center
05:46PM 31.7533 -80.9794 34° Northeast 464 534 33,000  Level Jacksonville Center
05:47PM 31.8586 -80.8967 34° Northeast 464 534 33,000  Level Jacksonville Center
05:48PM 31.9553 -80.8161 35° Northeast 464 534 33,000  Level Jacksonville Center
05:49PM 32.0728 -80.7156 36° Northeast 464 534 33,000  Level Jacksonville Center
05:50PM 32.1753 -80.6197 38° Northeast 469 540 33,000  Level Jacksonville Center
05:51PM 32.2800 -80.5261 37° Northeast 474 545 33,000  Level Jacksonville Center
05:52PM 32.3869 -80.4325 36° Northeast 474 545 33,000  Level Jacksonville Center
05:53PM 32.4833 -80.3461 37° Northeast 474 545 33,000  Level Jacksonville Center
05:54PM 32.5858 -80.2519 38° Northeast 474 545 33,000  Level Jacksonville Center
05:55PM 32.6922 -80.1575 37° Northeast 474 545 33,000  Level Jacksonville Center
05:56PM 32.7967 -80.0606 38° Northeast 474 545 33,000  Level Jacksonville Center
05:57PM 32.9008 -79.9658 37° Northeast 474 545 33,000  Level Jacksonville Center
05:58PM 33.0072 -79.8706 37° Northeast 474 545 33,000 -60 Level Jacksonville Center
05:59PM 33.1114 -79.7778 37° Northeast 474 545 32,900  Descending Jacksonville Center
06:00PM 33.2156 -79.6822 37° Northeast 474 545 33,000  Climbing Jacksonville Center
06:01PM 33.3172 -79.5867 38° Northeast 469 540 33,000  Level Jacksonville Center
06:02PM 33.4214 -79.4933 37° Northeast 469 540 33,000  Level Jacksonville Center
06:03PM 33.5231 -79.3972 38° Northeast 469 540 33,000  Level Jacksonville Center
06:04PM 33.6267 -79.3033 37° Northeast 469 540 33,000  Level Jacksonville Center
06:05PM 33.7306 -79.2092 37° Northeast 469 540 33,000  Level Jacksonville Center
06:06PM 33.8319 -79.1125 38° Northeast 469 540 33,000  Level Jacksonville Center
06:08PM 34.0422 -78.9175 38° Northeast 466 536 33,000  Level Washington Center
06:09PM 34.1472 -78.8114 40° Northeast 475 547 33,000  Level Washington Center
06:10PM 34.2522 -78.7050 40° Northeast 481 554 33,000  Level Washington Center
06:11PM 34.3531 -78.6031 40° Northeast 481 554 33,000  Level Washington Center
06:12PM 34.4578 -78.5011 39° Northeast 481 554 33,000  Level Washington Center
06:13PM 34.5606 -78.3964 40° Northeast 481 554 33,000  Level Washington Center
06:14PM 34.6522 -78.3036 40° Northeast 481 554 33,000  Level Washington Center
06:15PM 34.7547 -78.1983 40° Northeast 481 554 33,000  Level Washington Center
06:16PM 34.8681 -78.0753 42° Northeast 481 554 33,000  Level Washington Center
06:17PM 34.9703 -77.9694 40° Northeast 481 554 33,000  Level Washington Center
06:18PM 35.0744 -77.8633 40° Northeast 486 559 33,000  Level Washington Center
06:19PM 35.1789 -77.7572 40° Northeast 486 559 33,000  Level Washington Center
06:20PM 35.2850 -77.6481 40° Northeast 492 566 33,000  Level Washington Center
06:21PM 35.3911 -77.5386 40° Northeast 492 566 33,000  Level Washington Center
06:22PM 35.4842 -77.4592 35° Northeast 492 566 33,000 -360 Level Washington Center
06:23PM 35.6194 -77.3422 35° Northeast 497 572 32,300 -1,020 Descending Washington Center
06:24PM 35.7317 -77.2425 36° Northeast 497 572 31,000 -720 Descending Washington Center
06:25PM 35.8456 -77.1422 36° Northeast 497 572 31,000 -60 Level Washington Center
06:26PM 35.9575 -77.0392 37° Northeast 497 572 30,900  Descending Washington Center
06:27PM 36.0714 -76.9386 36° Northeast 503 579 31,000  Climbing Washington Center
06:28PM 36.1872 -76.8375 35° Northeast 503 579 31,000  Level Washington Center
06:29PM 36.3069 -76.7492 31° Northeast 498 573 31,000  Level Washington Center
06:30PM 36.4331 -76.6633 29° Northeast 503 579 31,000  Level Washington Center
06:31PM 36.5567 -76.5744 30° Northeast 503 579 31,000  Level Washington Center
06:32PM 36.6806 -76.4881 29° Northeast 508 585 31,000 -60 Level Washington Center
06:33PM 36.8022 -76.3961 31° Northeast 508 585 30,900 -420 Descending Washington Center
06:34PM 36.9258 -76.3064 30° Northeast 508 585 30,200 -780 Descending Washington Center
06:35PM 37.0536 -76.2139 30° Northeast 513 590 29,400 -660 Descending Washington Center
06:36PM 37.1814 -76.1236 29° Northeast 513 590 28,900 -240 Descending Washington Center
06:37PM 37.3069 -76.0306 31° Northeast 518 596 29,000  Climbing Washington Center
06:38PM 37.4303 -75.9397 30° Northeast 513 590 29,000  Level Washington Center
06:39PM 37.5367 -75.8589 31° Northeast 508 585 29,000  Level Washington Center
06:40PM 37.6619 -75.7675 30° Northeast 508 585 29,000 -60 Level Washington Center
06:41PM 37.7831 -75.6758 31° Northeast 508 585 28,900  Descending Washington Center
06:42PM 37.9042 -75.5867 30° Northeast 503 579 29,000 -900 Climbing Washington Center
06:43PM 38.0272 -75.4942 31° Northeast 503 579 27,200 -2,100 Descending Washington Center
06:44PM 38.1542 -75.4094 28° Northeast 509 586 24,800 -2,400 Descending Washington Center
06:45PM 38.2792 -75.3272 27° Northeast 509 586 22,400 -2,340 Descending Washington Center
06:46PM 38.3978 -75.2525 26° Northeast 488 562 20,200 -2,340 Descending Washington Center
06:47PM 38.5103 -75.1778 27° Northeast 462 532 17,800 -2,220 Descending Washington Center
06:48PM 38.6164 -75.1133 25° Northeast 438 504 15,700 -1,440 Descending Washington Center
06:49PM 38.7181 -75.0436 28° Northeast 418 481 14,900 -720 Descending Washington Center
06:50PM 38.8264 -75.0081 14° North 406 467 14,300 -540 Descending Washington Center
06:51PM 38.9347 -74.9992 North 385 443 13,900 -240 Descending Washington Center
06:52PM 39.0389 -74.9958 North 385 443 13,900 -960 Level Washington Center
06:53PM 39.1431 -74.9894 North 380 437 12,000 -1,440 Descending Washington Center
06:55PM 39.3667 -74.9833 North 292 336 9,200 -1,080 Descending Philadelphia TRACON
06:56PM 39.4500 -74.9667 North 291 335 8,400 -840 Descending Philadelphia TRACON
06:57PM 39.5167 -74.9833 349° North 281 323 7,600 -780 Descending Philadelphia TRACON
06:58PM 39.6000 -75.0167 343° North 271 312 6,900 -840 Descending Philadelphia TRACON
06:59PM 39.6667 -75.0333 349° North 267 307 6,100 -480 Descending Philadelphia TRACON
07:00PM 39.7333 -75.0333 360° North 255 293 6,000 -60 Descending Philadelphia TRACON
07:01PM 39.7833 -74.9833 38° Northeast 200 230 6,000  Level Philadelphia TRACON
07:02PM 39.8167 -74.9500 38° Northeast 211 243 6,000 -60 Level Philadelphia TRACON
07:03PM 39.8667 -74.9000 38° Northeast 211 243 5,900 -720 Descending Philadelphia TRACON
07:04PM 39.9000 -74.9500 311° West 199 229 4,500 -1,260 Descending Philadelphia TRACON
07:05PM 39.9000 -75.0167 270° West 177 204 3,300 -1,080 Descending Philadelphia TRACON
07:06PM 39.9000 -75.0833 270° West 173 199 2,400 -960 Descending Philadelphia TRACON
07:07PM 39.9000 -75.1333 270° West 168 193 1,400 -900 Descending Philadelphia TRACON
07:08PM 39.8833 -75.1833 247° West 131 151 700 -720 Descending Philadelphia TRACON
07:10PM 39.8667 -75.2333 North  Level FlightAware Approximate
07:17PM 39.8722 -75.2409 North  Level Estimated